createdAt,value
2022-09-17T00:02:07.218Z,1.00
2022-09-17T00:07:08.611Z,0.80
2022-09-17T00:12:13.380Z,0.90
2022-09-17T00:17:16.725Z,0.70
2022-09-17T00:22:17.991Z,0.90
2022-09-17T00:27:19.297Z,0.83
2022-09-17T00:32:20.707Z,0.90
2022-09-17T00:37:22.449Z,0.85
2022-09-17T00:42:23.851Z,0.70
2022-09-17T00:47:33.244Z,0.93
2022-09-17T00:52:41.309Z,0.85
2022-09-17T00:57:43.302Z,1.00
2022-09-17T01:02:44.863Z,0.90
2022-09-17T01:07:46.125Z,0.70
2022-09-17T01:12:47.771Z,1.03
2022-09-17T01:17:56.299Z,0.80
2022-09-17T01:22:58.101Z,0.73
2022-09-17T01:28:10.624Z,0.70
2022-09-17T01:33:34.079Z,0.88
2022-09-17T01:38:50.898Z,1.02
2022-09-17T01:43:56.666Z,0.83
2022-09-17T01:48:59.523Z,0.93
2022-09-17T01:54:05.084Z,0.90
2022-09-17T01:59:09.315Z,0.87
2022-09-17T02:04:17.606Z,0.98
2022-09-17T02:09:24.206Z,0.80
2022-09-17T02:14:28.757Z,0.90
2022-09-17T02:19:32.087Z,0.80
2022-09-17T02:24:59.552Z,0.90
2022-09-17T02:30:01.024Z,0.90
2022-09-17T02:35:02.637Z,0.95
2022-09-17T02:40:06.057Z,0.87
2022-09-17T02:45:14.912Z,0.87
2022-09-17T02:50:34.766Z,0.90
2022-09-17T02:56:02.261Z,0.80
2022-09-17T03:01:06.741Z,0.90
2022-09-17T03:06:08.255Z,0.95
2022-09-17T03:11:12.803Z,0.97
2022-09-17T03:16:14.215Z,0.80
2022-09-17T03:21:15.764Z,1.02
2022-09-17T03:26:17.043Z,0.80
2022-09-17T03:31:18.491Z,1.00
2022-09-17T03:36:20.316Z,1.20
2022-09-17T03:41:21.588Z,1.00
2022-09-17T03:46:22.914Z,1.20
2022-09-17T03:51:24.208Z,1.00
2022-09-17T03:56:26.725Z,1.08
2022-09-17T04:01:28.576Z,1.20
2022-09-17T04:06:30.001Z,1.10
2022-09-17T04:11:31.263Z,1.13
2022-09-17T04:16:32.590Z,1.03
2022-09-17T04:21:33.901Z,1.17
2022-09-17T04:26:35.161Z,1.33
2022-09-17T04:31:38.806Z,1.50
2022-09-17T04:36:40.143Z,1.52
2022-09-17T04:41:41.528Z,1.00
2022-09-17T04:46:42.885Z,1.20
2022-09-17T04:51:44.571Z,1.33
2022-09-17T04:56:45.875Z,1.50
2022-09-17T05:01:47.405Z,1.15
2022-09-17T05:06:48.789Z,1.25
2022-09-17T05:11:50.083Z,1.47
2022-09-17T05:16:51.478Z,1.40
2022-09-17T05:21:52.741Z,1.65
2022-09-17T05:26:54.290Z,2.03
2022-09-17T05:31:55.699Z,1.55
2022-09-17T05:36:56.982Z,1.50
2022-09-17T05:41:59.167Z,1.87
2022-09-17T05:47:00.581Z,1.70
2022-09-17T05:52:03.544Z,1.57
2022-09-17T05:57:05.903Z,1.40
2022-09-17T06:02:07.225Z,1.70
2022-09-17T06:07:09.240Z,1.90
2022-09-17T06:12:10.494Z,1.50
2022-09-17T06:17:11.878Z,1.67
2022-09-17T06:22:13.295Z,1.93
2022-09-17T06:27:15.016Z,1.90
2022-09-17T06:32:17.026Z,2.17
2022-09-17T06:37:18.356Z,1.83
2022-09-17T06:42:19.646Z,1.90
2022-09-17T06:47:21.015Z,2.33
2022-09-17T06:52:22.457Z,2.58
2022-09-17T06:57:23.701Z,2.70
2022-09-17T07:02:25.321Z,2.40
2022-09-17T07:07:26.758Z,3.25
2022-09-17T07:12:28.220Z,2.40
2022-09-17T07:17:30.071Z,2.40
2022-09-17T07:22:31.599Z,2.80
2022-09-17T07:27:32.881Z,2.57
2022-09-17T07:32:34.120Z,2.60
2022-09-17T07:37:35.807Z,2.60
2022-09-17T07:42:37.111Z,2.73
2022-09-17T07:47:39.431Z,2.50
2022-09-17T07:52:45.648Z,2.88
2022-09-17T07:57:50.555Z,2.47
2022-09-17T08:02:55.307Z,2.30
2022-09-17T08:07:56.736Z,2.00
2022-09-17T08:12:58.634Z,2.00
2022-09-17T08:17:59.899Z,2.57
2022-09-17T08:23:01.526Z,2.45
2022-09-17T08:28:02.912Z,2.50
2022-09-17T08:33:04.220Z,2.30
2022-09-17T08:38:05.474Z,2.78
2022-09-17T08:43:11.867Z,2.27
2022-09-17T08:48:14.427Z,2.70
2022-09-17T08:53:33.889Z,2.38
2022-09-17T08:58:45.337Z,2.40
2022-09-17T09:04:00.215Z,2.33
2022-09-17T09:09:06.602Z,2.60
2022-09-17T09:14:10.644Z,2.50
2022-09-17T09:19:21.013Z,1.80
2022-09-17T09:24:26.284Z,1.95
2022-09-17T09:29:30.421Z,2.75
2022-09-17T09:34:33.660Z,2.10
2022-09-17T09:39:41.283Z,1.60
2022-09-17T09:44:45.361Z,1.83
2022-09-17T09:50:12.736Z,2.20
2022-09-17T09:55:32.740Z,2.10
2022-09-17T10:00:42.833Z,1.77
2022-09-17T10:05:54.439Z,1.85
2022-09-17T10:11:06.044Z,1.90
2022-09-17T10:16:25.310Z,2.15
2022-09-17T10:21:31.117Z,1.50
2022-09-17T10:26:33.701Z,1.60
2022-09-17T10:31:52.881Z,1.92
2022-09-17T10:36:56.066Z,1.83
2022-09-17T10:42:03.894Z,1.83
2022-09-17T10:47:07.839Z,1.50
2022-09-17T10:52:11.711Z,1.70
2022-09-17T10:57:16.674Z,1.50
2022-09-17T11:02:18.019Z,1.43
2022-09-17T11:07:19.355Z,1.77
2022-09-17T11:12:23.328Z,2.58
2022-09-17T11:17:35.524Z,1.60
2022-09-17T11:22:58.537Z,1.80
2022-09-17T11:28:02.679Z,1.77
2022-09-17T11:33:16.447Z,1.70
2022-09-17T11:38:30.435Z,1.63
2022-09-17T11:43:35.808Z,1.75
2022-09-17T11:48:55.773Z,1.90
2022-09-17T11:53:57.335Z,1.77
2022-09-17T11:58:58.891Z,1.92
2022-09-17T12:04:02.663Z,1.73
2022-09-17T12:09:10.942Z,2.20
2022-09-17T12:14:31.188Z,1.50
2022-09-17T12:19:35.847Z,1.35
2022-09-17T12:24:38.287Z,1.10
2022-09-17T12:30:00.392Z,1.10
2022-09-17T12:35:17.472Z,1.00
2022-09-17T12:40:18.813Z,1.13
2022-09-17T12:45:22.875Z,1.20
2022-09-17T12:50:33.574Z,1.20
2022-09-17T12:55:50.349Z,1.30
2022-09-17T13:01:11.922Z,1.10
2022-09-17T13:06:13.230Z,1.45
2022-09-17T13:11:17.303Z,1.23
2022-09-17T13:16:32.653Z,1.27
2022-09-17T13:21:56.721Z,1.33
2022-09-17T13:27:00.064Z,1.33
2022-09-17T13:32:01.470Z,1.30
2022-09-17T13:37:03.909Z,1.10
2022-09-17T13:42:08.063Z,1.25
2022-09-17T13:47:21.412Z,1.00
2022-09-17T13:52:49.006Z,1.17
2022-09-17T13:57:51.235Z,1.40
2022-09-17T14:02:52.599Z,1.40
2022-09-17T14:08:10.032Z,1.20
2022-09-17T14:13:24.741Z,1.25
2022-09-17T14:18:29.154Z,1.40
2022-09-17T14:23:30.483Z,1.20
2022-09-17T14:28:37.161Z,1.45
2022-09-17T14:33:39.708Z,1.40
2022-09-17T14:39:07.584Z,1.30
2022-09-17T14:44:19.711Z,1.10
2022-09-17T14:49:22.857Z,1.20
2022-09-17T14:54:35.800Z,1.50
2022-09-17T14:59:51.442Z,1.57
2022-09-17T15:04:52.788Z,1.35
2022-09-17T15:09:55.764Z,1.10
2022-09-17T15:14:57.407Z,1.10
2022-09-17T15:19:59.622Z,1.10
2022-09-17T15:25:03.918Z,1.10
2022-09-17T15:30:06.729Z,1.20
2022-09-17T15:35:18.776Z,1.15
2022-09-17T15:40:39.542Z,1.20
2022-09-17T15:45:42.665Z,1.30
2022-09-17T15:50:51.017Z,1.35
2022-09-17T15:56:01.440Z,1.10
2022-09-17T16:01:22.713Z,1.20
2022-09-17T16:06:27.051Z,1.37
2022-09-17T16:11:32.366Z,1.30
2022-09-17T16:16:34.802Z,1.40
2022-09-17T16:21:36.103Z,1.33
2022-09-17T16:26:38.097Z,1.33
2022-09-17T16:31:39.462Z,1.50
2022-09-17T16:36:40.819Z,1.50
2022-09-17T16:41:42.075Z,1.45
2022-09-17T16:46:43.403Z,2.03
2022-09-17T16:51:44.699Z,1.50
2022-09-17T16:56:46.104Z,1.40
2022-09-17T17:01:49.253Z,1.63
2022-09-17T17:06:50.589Z,5.10
2022-09-17T17:11:51.952Z,3.72
2022-09-17T17:16:53.255Z,2.65
2022-09-17T17:21:54.520Z,2.33
2022-09-17T17:26:55.797Z,1.70
2022-09-17T17:31:57.063Z,1.65
2022-09-17T17:36:58.781Z,1.80
2022-09-17T17:42:00.115Z,1.90
2022-09-17T17:47:01.809Z,1.27
2022-09-17T17:52:10.598Z,1.67
2022-09-17T17:57:12.109Z,1.50
2022-09-17T18:02:13.644Z,2.00
2022-09-17T18:07:15.052Z,1.30
2022-09-17T18:12:16.429Z,1.65
2022-09-17T18:17:17.994Z,1.73
2022-09-17T18:22:19.342Z,1.60
2022-09-17T18:27:20.653Z,1.55
2022-09-17T18:32:22.126Z,0.95
2022-09-17T18:37:23.577Z,0.80
2022-09-17T18:42:25.486Z,1.10
2022-09-17T18:47:27.042Z,1.13
2022-09-17T18:52:28.527Z,0.70
2022-09-17T18:57:30.102Z,0.90
2022-09-17T19:02:35.215Z,1.00
2022-09-17T19:07:36.599Z,0.80
2022-09-17T19:12:38.255Z,0.90
2022-09-17T19:17:39.552Z,1.00
2022-09-17T19:22:41.995Z,0.83
2022-09-17T19:27:44.539Z,0.80
2022-09-17T19:32:46.837Z,1.03
2022-09-17T19:37:48.233Z,1.30
2022-09-17T19:42:54.136Z,1.00
2022-09-17T19:48:01.579Z,1.10
2022-09-17T19:53:03.171Z,1.35
2022-09-17T19:58:04.713Z,1.27
2022-09-17T20:03:06.566Z,1.07
2022-09-17T20:08:08.089Z,0.88
2022-09-17T20:13:09.365Z,0.80
2022-09-17T20:18:10.707Z,1.00
2022-09-17T20:23:12.054Z,1.63
2022-09-17T20:28:13.387Z,3.00
2022-09-17T20:33:15.151Z,1.30
2022-09-17T20:39:09.540Z,1.20
2022-09-17T20:43:39.093Z,1.27
2022-09-17T20:48:41.345Z,1.83
2022-09-17T20:53:43.658Z,1.10
2022-09-17T20:58:48.625Z,1.10
2022-09-17T21:03:51.610Z,0.80
2022-09-17T21:08:53.483Z,0.70
2022-09-17T21:13:55.233Z,0.70
2022-09-17T21:19:01.504Z,0.80
2022-09-17T21:24:04.739Z,0.87
2022-09-17T21:29:06.049Z,1.00
2022-09-17T21:34:09.802Z,0.95
2022-09-17T21:39:12.916Z,0.60
2022-09-17T21:44:14.977Z,0.82
2022-09-17T21:49:17.574Z,0.90
2022-09-17T21:54:19.198Z,0.80
2022-09-17T21:59:20.534Z,0.90
2022-09-17T22:04:26.007Z,0.90
2022-09-17T22:09:30.299Z,1.00
2022-09-17T22:14:32.401Z,1.23
2022-09-17T22:19:34.157Z,1.00
2022-09-17T22:24:35.765Z,1.10
2022-09-17T22:29:37.309Z,0.95
2022-09-17T22:34:38.840Z,1.07
2022-09-17T22:39:40.209Z,1.05
2022-09-17T22:44:41.737Z,0.90
2022-09-17T22:49:42.969Z,0.90
2022-09-17T22:54:44.254Z,0.85
2022-09-17T22:59:45.591Z,1.10
2022-09-17T23:04:46.939Z,1.00
2022-09-17T23:09:48.266Z,0.98
2022-09-17T23:14:50.719Z,0.97
2022-09-17T23:19:52.072Z,1.10
2022-09-17T23:24:53.945Z,0.80
2022-09-17T23:29:55.219Z,0.97
2022-09-17T23:34:56.849Z,0.93
2022-09-17T23:39:58.427Z,0.98
2022-09-17T23:44:59.971Z,0.80
2022-09-17T23:50:01.383Z,1.30
2022-09-17T23:55:03.032Z,0.80
